Time;durP1;ratioP1;P1;durP2;ratioP2;P2;SDS_P1;SDS_P2;PMS_P1;PMS_P2;Temp;Humidity;BMP_temperature;BMP_pressure;BME280_temperature;BME280_humidity;BME280_pressure;Samples;Min_cycle;Max_cycle;Signal;HPM_P1;HPM_P2
2023/11/09 00:02:52;;;;;;;0.00;0.00;;;;;;;7.41;69.90;100541.41;15675705;28;20064;-51
2023/11/09 00:10:29;;;;;;;3.20;0.95;;;;;;;7.37;69.86;100535.66;15675189;28;20540;-56
2023/11/09 00:18:06;;;;;;;0.10;0.10;;;;;;;7.32;69.73;100530.06;15657194;28;20560;-50
2023/11/09 00:25:43;;;;;;;0.80;0.45;;;;;;;7.32;69.67;100521.19;15674818;28;20114;-50
2023/11/09 00:33:20;;;;;;;0.00;0.00;;;;;;;7.28;69.82;100507.44;15640227;28;20528;-47
2023/11/09 00:40:54;;;;;;;0.00;0.00;;;;;;;6.78;71.84;100506.59;15673336;28;20045;-50
2023/11/09 00:48:27;;;;;;;0.00;0.00;;;;;;;7.34;70.57;100497.81;15653338;28;20465;-51
2023/11/09 00:56:02;;;;;;;0.00;0.00;;;;;;;7.62;69.12;100476.41;15586098;28;20216;-56
2023/11/09 01:03:37;;;;;;;0.00;0.00;;;;;;;7.26;71.29;100482.75;15593982;28;20049;-54
2023/11/09 01:11:12;;;;;;;0.00;0.00;;;;;;;7.73;69.16;100461.66;15589768;28;20148;-48
2023/11/09 01:18:46;;;;;;;0.05;0.05;;;;;;;7.70;69.71;100454.91;15591787;28;20367;-54
2023/11/09 01:26:21;;;;;;;0.00;0.00;;;;;;;7.08;71.77;100447.72;15591372;28;20033;-55
2023/11/09 01:33:54;;;;;;;0.00;0.00;;;;;;;7.46;70.92;100436.66;15591382;28;20037;-51
2023/11/09 01:41:28;;;;;;;0.00;0.00;;;;;;;7.43;70.95;100421.06;15590315;28;20482;-47
2023/11/09 01:49:02;;;;;;;0.00;0.00;;;;;;;7.94;69.03;100408.13;15615269;28;20041;-55
2023/11/09 01:56:36;;;;;;;;;;;;;;;7.52;70.41;100401.19;15670894;28;20079;-47
2023/11/09 02:04:10;;;;;;;0.52;0.30;;;;;;;7.55;70.61;100398.09;15661836;28;19921;-52
2023/11/09 02:11:46;;;;;;;0.00;0.00;;;;;;;7.58;70.62;100395.84;15642832;28;20552;-51
2023/11/09 02:19:22;;;;;;;0.20;0.10;;;;;;;7.58;70.18;100377.16;15638283;28;20045;-56
2023/11/09 02:26:57;;;;;;;0.10;0.10;;;;;;;7.49;70.40;100364.19;15633841;28;20053;-51
2023/11/09 02:34:32;;;;;;;0.03;0.03;;;;;;;7.52;70.80;100358.44;15651616;28;20087;-49
2023/11/09 02:42:08;;;;;;;0.00;0.00;;;;;;;7.48;70.89;100343.84;15649527;28;20040;-48
2023/11/09 02:49:42;;;;;;;0.00;0.00;;;;;;;7.48;70.29;100336.66;15625057;28;20060;-53
2023/11/09 02:57:17;;;;;;;0.00;0.00;;;;;;;7.79;70.18;100327.31;15605468;28;20049;-47
2023/11/09 03:04:50;;;;;;;0.00;0.00;;;;;;;7.56;70.65;100316.97;15578045;28;20041;-49
2023/11/09 03:12:26;;;;;;;0.00;0.00;;;;;;;7.70;70.62;100304.47;15604991;28;20470;-47
2023/11/09 03:20:02;;;;;;;0.00;0.00;;;;;;;8.01;69.79;100299.38;15604374;28;20030;-53
2023/11/09 03:27:38;;;;;;;0.00;0.00;;;;;;;8.18;68.51;100300.63;15587963;28;20045;-47
2023/11/09 03:35:14;;;;;;;0.00;0.00;;;;;;;8.27;68.40;100281.72;15610845;28;20041;-53
2023/11/09 03:42:50;;;;;;;0.00;0.00;;;;;;;8.32;68.26;100272.03;15615253;28;20143;-51
2023/11/09 03:50:23;;;;;;;0.10;0.10;;;;;;;8.70;66.87;100260.69;15596026;28;20094;-51
2023/11/09 03:58:00;;;;;;;0.17;0.08;;;;;;;8.50;67.50;100242.00;15598721;28;20124;-50
2023/11/09 04:05:34;;;;;;;0.00;0.00;;;;;;;8.69;66.83;100238.47;15594993;28;20045;-50
2023/11/09 04:13:10;;;;;;;0.03;0.03;;;;;;;8.68;66.40;100218.09;15596079;28;20076;-55
2023/11/09 04:20:43;;;;;;;0.00;0.00;;;;;;;8.93;65.62;100215.53;15612787;28;20156;-55
2023/11/09 04:28:18;;;;;;;;;;;;;;;8.96;65.35;100208.13;15612914;28;20041;-53
2023/11/09 04:35:55;;;;;;;0.00;0.00;;;;;;;8.87;65.53;100194.16;15611395;28;19921;-56
2023/11/09 04:43:30;;;;;;;0.00;0.00;;;;;;;8.69;66.18;100181.47;15611117;28;20444;-50
2023/11/09 04:51:06;;;;;;;0.00;0.00;;;;;;;8.95;65.14;100161.78;15630319;28;20045;-55
2023/11/09 04:58:48;;;;;;;0.00;0.00;;;;;;;9.06;65.01;100162.97;15671628;28;20152;-50
2023/11/09 05:14:14;;;;;;;0.35;0.35;;;;;;;8.89;64.85;100150.06;15672080;28;20315;-46
2023/11/09 05:21:51;;;;;;;0.00;0.00;;;;;;;9.41;63.01;100142.75;15654605;28;20135;-53
2023/11/09 05:29:26;;;;;;;0.10;0.10;;;;;;;9.04;64.46;100131.03;15635778;28;20036;-51
2023/11/09 05:36:59;;;;;;;0.00;0.00;;;;;;;9.13;64.31;100140.47;15670254;28;20049;-50
2023/11/09 05:44:35;;;;;;;0.10;0.10;;;;;;;8.88;65.14;100116.31;15651458;28;20033;-52
2023/11/09 05:52:09;;;;;;;0.17;0.17;;;;;;;9.05;64.75;100124.69;15669495;28;20045;-54
2023/11/09 05:59:43;;;;;;;0.70;0.15;;;;;;;9.02;64.77;100111.72;15669567;28;20068;-52
2023/11/09 06:07:17;;;;;;;0.00;0.00;;;;;;;8.87;65.09;100120.03;15666600;28;20523;-53
2023/11/09 06:14:52;;;;;;;0.00;0.00;;;;;;;9.14;63.86;100118.03;15649761;28;20045;-51
2023/11/09 06:22:25;;;;;;;0.00;0.00;;;;;;;9.13;63.87;100110.19;15668815;28;20128;-54
2023/11/09 06:30:03;;;;;;;0.00;0.00;;;;;;;8.97;63.98;100100.84;15668819;28;20182;-61
2023/11/09 06:37:36;;;;;;;0.00;0.00;;;;;;;9.29;62.67;100096.28;15668664;28;20049;-54
2023/11/09 06:45:12;;;;;;;0.00;0.00;;;;;;;9.25;62.64;100078.19;15669083;28;20069;-54
2023/11/09 06:52:45;;;;;;;0.10;0.10;;;;;;;9.55;61.61;100083.72;15649024;28;20504;-56
2023/11/09 07:00:23;;;;;;;0.00;0.00;;;;;;;9.43;62.13;100092.47;15668178;28;20072;-59
2023/11/09 07:07:58;;;;;;;0.80;0.52;;;;;;;9.31;62.73;100104.91;15671707;28;20053;-60
2023/11/09 07:15:33;;;;;;;0.00;0.00;;;;;;;9.92;61.11;100100.69;15678920;28;20051;-54
2023/11/09 07:23:07;;;;;;;0.00;0.00;;;;;;;9.65;61.67;100086.69;15679752;28;20045;-60
2023/11/09 07:30:47;;;;;;;0.00;0.00;;;;;;;9.70;61.34;100093.06;15677359;28;20118;-60
2023/11/09 07:38:21;;;;;;;0.00;0.00;;;;;;;10.10;60.33;100092.66;15677770;28;20124;-58
2023/11/09 07:45:55;;;;;;;0.00;0.00;;;;;;;9.88;60.75;100104.84;15677769;28;20049;-51
2023/11/09 07:53:31;;;;;;;0.00;0.00;;;;;;;9.92;60.49;100087.28;15658555;28;20516;-48
2023/11/09 08:01:06;;;;;;;0.00;0.00;;;;;;;9.78;60.94;100085.75;15669242;28;20483;-59
2023/11/09 08:08:41;;;;;;;0.00;0.00;;;;;;;9.91;60.39;100070.38;15676779;28;20040;-56
2023/11/09 08:16:16;;;;;;;0.30;0.30;;;;;;;10.25;59.37;100068.16;15657396;28;20052;-52
2023/11/09 08:23:49;;;;;;;0.00;0.00;;;;;;;10.31;59.16;100053.06;15674738;28;20512;-61
2023/11/09 08:31:25;;;;;;;0.00;0.00;;;;;;;10.58;58.14;100048.97;15674799;28;20051;-53
2023/11/09 08:39:01;;;;;;;0.10;0.10;;;;;;;10.44;58.37;100040.31;15657157;28;20044;-58
2023/11/09 08:46:38;;;;;;;0.00;0.00;;;;;;;10.83;57.41;100034.59;15674594;28;20041;-59
2023/11/09 08:54:12;;;;;;;0.00;0.00;;;;;;;10.54;57.38;100055.00;15673651;28;20045;-53
2023/11/09 09:01:49;;;;;;;0.00;0.00;;;;;;;11.01;56.40;100050.66;15671958;28;20106;-52
2023/11/09 09:09:24;;;;;;;0.00;0.00;;;;;;;10.83;56.78;100037.28;15654057;28;20180;-56
2023/11/09 09:17:05;;;;;;;0.00;0.00;;;;;;;11.01;56.27;100037.22;15671579;28;20045;-60
2023/11/09 09:24:39;;;;;;;0.00;0.00;;;;;;;11.08;56.25;100042.47;15636880;28;20516;-56
2023/11/09 09:32:14;;;;;;;0.00;0.00;;;;;;;11.06;56.07;100041.91;15669830;28;20052;-54
2023/11/09 09:39:48;;;;;;;0.00;0.00;;;;;;;11.17;55.64;100038.41;15671036;28;20068;-60
2023/11/09 09:47:25;;;;;;;0.00;0.00;;;;;;;11.16;55.57;100031.41;15670111;28;20443;-59
2023/11/09 09:54:58;;;;;;;0.08;0.03;;;;;;;11.12;55.09;100024.84;15669151;28;20040;-59
2023/11/09 10:02:39;;;;;;;0.10;0.10;;;;;;;11.79;54.19;100029.88;15670146;28;20036;-57
2023/11/09 10:10:16;;;;;;;0.00;0.00;;;;;;;11.38;54.28;100023.63;15650491;28;20056;-58
2023/11/09 10:17:52;;;;;;;0.00;0.00;;;;;;;11.26;54.45;100020.91;15668118;28;20059;-57
2023/11/09 10:25:28;;;;;;;0.15;0.10;;;;;;;11.12;54.92;100030.22;15651321;28;20451;-58
2023/11/09 10:33:07;;;;;;;0.00;0.00;;;;;;;11.44;54.62;100019.97;15634326;28;20099;-59
2023/11/09 10:40:41;;;;;;;0.20;0.20;;;;;;;11.54;55.01;100022.09;15669966;28;20132;-56
2023/11/09 10:48:18;;;;;;;0.00;0.00;;;;;;;11.44;54.09;100007.38;15676841;28;20092;-56
2023/11/09 10:55:54;;;;;;;0.00;0.00;;;;;;;11.68;54.28;99997.41;15619180;28;20053;-57
2023/11/09 11:03:35;;;;;;;0.00;0.00;;;;;;;11.47;54.52;99989.94;15601318;28;20049;-55
2023/11/09 11:11:14;;;;;;;1.98;0.60;;;;;;;11.72;54.12;99981.63;15611077;28;20056;-60
2023/11/09 11:19:06;;;;;;;0.00;0.00;;;;;;;11.68;53.71;99975.91;15617549;28;20077;-54
2023/11/09 11:26:49;;;;;;;0.00;0.00;;;;;;;11.63;55.15;99991.94;15582569;28;20176;-53
2023/11/09 11:34:50;;;;;;;0.25;0.25;;;;;;;12.05;53.96;99985.56;15616517;28;20390;-53
2023/11/09 11:42:25;;;;;;;0.00;0.00;;;;;;;12.15;53.43;99970.44;15607220;28;20046;-58
2023/11/09 11:50:02;;;;;;;0.00;0.00;;;;;;;12.28;53.19;99974.72;15657735;22;20295;-50
2023/11/09 11:58:02;;;;;;;0.10;0.10;;;;;;;12.95;51.17;99957.84;15741591;28;20106;-50
2023/11/09 12:05:40;;;;;;;0.25;0.25;;;;;;;12.48;52.61;99958.13;15681793;28;20067;-49
2023/11/09 12:13:15;;;;;;;0.20;0.20;;;;;;;12.61;52.09;99957.84;15682865;28;20045;-50
2023/11/09 12:20:50;;;;;;;0.00;0.00;;;;;;;12.60;52.84;99945.44;15663442;28;20075;-51
2023/11/09 12:28:23;;;;;;;0.10;0.10;;;;;;;12.42;52.98;99951.03;15664299;28;20489;-50
2023/11/09 12:36:05;;;;;;;;;;;;;;;12.22;53.57;99948.78;15680422;28;20103;-50
2023/11/09 12:43:40;;;;;;;0.17;0.17;;;;;;;12.13;54.12;99956.44;15678263;28;19931;-48
2023/11/09 12:51:22;;;;;;;0.00;0.00;;;;;;;12.11;54.67;99937.00;15678448;28;20071;-54
2023/11/09 12:58:56;;;;;;;0.13;0.13;;;;;;;12.20;54.25;99950.88;15659347;28;20068;-52
2023/11/09 13:06:31;;;;;;;0.00;0.00;;;;;;;11.73;55.36;99941.06;15676872;28;20041;-52
2023/11/09 13:14:08;;;;;;;0.00;0.00;;;;;;;11.85;54.87;99933.00;15676661;28;20095;-49
2023/11/09 13:21:44;;;;;;;0.00;0.00;;;;;;;11.72;55.22;99931.38;15673336;28;20034;-49
2023/11/09 13:29:23;;;;;;;0.00;0.00;;;;;;;11.52;57.79;99933.63;15671330;28;20146;-53
2023/11/09 13:36:58;;;;;;;0.25;0.22;;;;;;;11.53;58.55;99943.34;15675965;28;20138;-48
2023/11/09 13:44:31;;;;;;;0.00;0.00;;;;;;;11.31;58.48;99945.78;15676048;28;20052;-53
2023/11/09 13:52:15;;;;;;;0.00;0.00;;;;;;;11.57;58.80;99936.44;15622871;28;20387;-53
2023/11/09 14:00:08;;;;;;;0.00;0.00;;;;;;;11.20;59.80;99943.94;15610960;28;20256;-50
2023/11/09 14:07:46;;;;;;;6.00;0.75;;;;;;;11.40;59.77;99941.69;15610797;28;20443;-55
2023/11/09 14:15:26;;;;;;;0.45;0.32;;;;;;;11.19;59.56;99932.38;15587997;28;20030;-51
2023/11/09 14:23:05;;;;;;;0.00;0.00;;;;;;;11.29;59.09;99920.22;15605507;28;20034;-54
2023/11/09 14:30:44;;;;;;;0.00;0.00;;;;;;;11.47;58.35;99910.16;15612595;28;20046;-53
2023/11/09 14:38:20;;;;;;;0.00;0.00;;;;;;;11.62;57.71;99901.59;15613335;28;20049;-51
2023/11/09 14:46:04;;;;;;;0.15;0.10;;;;;;;11.77;56.93;99902.97;15610193;28;20050;-50
2023/11/09 14:53:39;;;;;;;0.00;0.00;;;;;;;11.50;57.35;99898.91;15612387;28;20034;-48
2023/11/09 15:01:14;;;;;;;0.00;0.00;;;;;;;11.87;57.29;99892.44;15612760;28;20052;-50
2023/11/09 15:08:49;;;;;;;0.00;0.00;;;;;;;11.67;56.42;99885.56;15613352;28;20084;-53
2023/11/09 15:16:22;;;;;;;0.00;0.00;;;;;;;11.36;56.86;99897.53;15612832;28;20072;-50
2023/11/09 15:24:00;;;;;;;0.03;0.03;;;;;;;11.35;57.05;99892.41;15605134;28;20033;-51
2023/11/09 15:31:34;;;;;;;0.00;0.00;;;;;;;11.23;57.49;99877.09;15617046;28;20046;-50
2023/11/09 15:39:09;;;;;;;0.00;0.00;;;;;;;11.51;57.08;99875.53;15618936;28;20509;-49
2023/11/09 15:46:49;;;;;;;0.00;0.00;;;;;;;11.27;57.87;99873.97;15622670;28;20084;-49
2023/11/09 15:54:24;;;;;;;0.00;0.00;;;;;;;11.36;58.14;99864.50;15624578;28;20054;-51
2023/11/09 16:01:59;;;;;;;0.10;0.10;;;;;;;11.46;58.36;99856.63;15618298;28;20084;-50
2023/11/09 16:09:36;;;;;;;0.00;0.00;;;;;;;11.27;59.28;99872.09;15616975;28;20050;-53
2023/11/09 16:17:10;;;;;;;0.20;0.20;;;;;;;10.85;61.18;99866.88;15575214;28;20446;-52
2023/11/09 16:24:47;;;;;;;0.00;0.00;;;;;;;11.22;61.07;99869.28;15603110;28;20054;-51
2023/11/09 16:32:21;;;;;;;0.10;0.10;;;;;;;11.11;62.07;99860.22;15595439;28;20132;-55
2023/11/09 16:39:56;;;;;;;0.00;0.00;;;;;;;11.25;62.06;99871.53;15593447;28;20049;-52
2023/11/09 16:47:30;;;;;;;0.00;0.00;;;;;;;11.37;62.24;99868.81;15610354;28;20045;-52
2023/11/09 16:55:07;;;;;;;0.00;0.00;;;;;;;11.29;62.40;99874.56;15647022;28;20061;-50
2023/11/09 17:02:40;;;;;;;0.00;0.00;;;;;;;11.64;61.53;99874.47;15620397;28;20037;-50
2023/11/09 17:10:15;;;;;;;0.00;0.00;;;;;;;11.14;62.52;99870.47;15618383;28;20049;-50
2023/11/09 17:17:49;;;;;;;0.22;0.10;;;;;;;11.16;62.67;99875.63;15617238;28;20391;-54
2023/11/09 17:25:28;;;;;;;1.98;0.20;;;;;;;11.17;62.89;99870.00;15617795;28;20409;-54
2023/11/09 17:33:02;;;;;;;0.00;0.00;;;;;;;11.08;62.93;99855.31;15601848;28;20045;-54
2023/11/09 17:40:37;;;;;;;;;;;;;;;11.16;62.63;99863.00;15607350;28;20245;-54
2023/11/09 17:48:10;;;;;;;0.00;0.00;;;;;;;11.26;62.58;99854.34;15611804;28;19921;-54
2023/11/09 17:55:45;;;;;;;0.00;0.00;;;;;;;11.28;62.27;99856.78;15743654;22;20044;-52
2023/11/09 18:03:19;;;;;;;0.15;0.10;;;;;;;11.10;62.58;99852.41;15737301;28;20045;-50
2023/11/09 18:10:54;;;;;;;0.00;0.00;;;;;;;11.08;62.92;99843.75;15733489;28;20052;-48
2023/11/09 18:18:28;;;;;;;1.55;0.28;;;;;;;11.09;63.57;99856.13;15733106;28;20044;-52
2023/11/09 18:26:07;;;;;;;0.00;0.00;;;;;;;11.20;63.80;99852.63;15732295;28;20040;-52
2023/11/09 18:33:40;;;;;;;0.45;0.45;;;;;;;11.06;63.90;99849.34;15729649;28;20052;-51
2023/11/09 18:41:17;;;;;;;0.00;0.00;;;;;;;11.41;62.66;99841.22;15733008;28;20335;-50
2023/11/09 18:48:51;;;;;;;0.00;0.00;;;;;;;11.46;62.17;99837.81;15732039;28;20080;-53
2023/11/09 18:56:26;;;;;;;0.00;0.00;;;;;;;11.41;62.05;99830.47;15732908;28;20048;-53
2023/11/09 19:03:59;;;;;;;0.10;0.10;;;;;;;11.25;62.47;99836.59;15742667;28;20039;-50
2023/11/09 19:11:33;;;;;;;0.20;0.20;;;;;;;11.26;61.72;99787.19;15745280;28;20566;-53
2023/11/09 19:19:08;;;;;;;0.00;0.00;;;;;;;11.49;61.74;99819.34;15743835;28;20130;-49
2023/11/09 19:26:43;;;;;;;0.20;0.20;;;;;;;11.43;62.07;99808.75;15741833;28;20094;-52
2023/11/09 19:34:17;;;;;;;0.00;0.00;;;;;;;11.05;63.03;99815.50;15741168;28;20028;-49
2023/11/09 19:41:51;;;;;;;0.28;0.28;;;;;;;11.01;63.62;99808.97;15743459;28;20594;-55
2023/11/09 19:49:26;;;;;;;0.47;0.30;;;;;;;11.03;64.20;99800.66;15743485;28;20076;-52
2023/11/09 19:57:00;;;;;;;0.00;0.00;;;;;;;10.50;65.98;99762.22;15742350;28;20453;-48
2023/11/09 20:04:34;;;;;;;0.00;0.00;;;;;;;10.64;67.12;99789.63;15740953;28;20051;-50
2023/11/09 20:12:09;;;;;;;0.00;0.00;;;;;;;10.71;67.58;99785.75;15733524;28;20059;-51
2023/11/09 20:19:43;;;;;;;0.45;0.20;;;;;;;10.46;69.20;99777.94;15739951;28;20052;-51
2023/11/09 20:27:18;;;;;;;0.00;0.00;;;;;;;10.42;69.62;99762.56;15739765;28;20086;-51
2023/11/09 20:34:52;;;;;;;0.00;0.00;;;;;;;10.14;70.85;99773.94;15736704;28;20056;-49
2023/11/09 20:42:28;;;;;;;0.00;0.00;;;;;;;10.18;70.99;99767.88;15738972;28;20156;-49
2023/11/09 20:50:01;;;;;;;0.00;0.00;;;;;;;10.13;71.02;99754.34;15735733;28;20098;-54
2023/11/09 20:57:35;;;;;;;;;;;;;;;10.17;71.10;99755.53;15738666;28;20367;-50
2023/11/09 21:05:09;;;;;;;0.00;0.00;;;;;;;10.28;70.78;99751.22;15732522;28;19963;-52
2023/11/09 21:12:45;;;;;;;0.00;0.00;;;;;;;10.56;69.92;99747.03;15738023;28;20144;-50
2023/11/09 21:20:19;;;;;;;0.00;0.00;;;;;;;10.14;70.97;99750.59;15736273;28;20055;-55
2023/11/09 21:27:53;;;;;;;;;;;;;;;10.41;69.93;99751.00;15737233;28;20052;-49
2023/11/09 21:35:27;;;;;;;0.00;0.00;;;;;;;10.17;70.91;99747.47;15736855;28;19920;-53
2023/11/09 21:43:02;;;;;;;0.00;0.00;;;;;;;10.52;70.11;99753.91;15735560;28;20044;-54
2023/11/09 21:50:35;;;;;;;0.00;0.00;;;;;;;10.36;70.21;99748.22;15735068;28;20064;-50
2023/11/09 21:58:10;;;;;;;;;;;;;;;10.23;71.04;99738.50;15736773;28;20136;-55
2023/11/09 22:05:43;;;;;;;0.00;0.00;;;;;;;10.13;71.81;99730.22;15734943;28;20019;-53
2023/11/09 22:13:20;;;;;;;1.35;0.38;;;;;;;10.27;70.34;99719.28;15734105;28;20044;-49
2023/11/09 22:20:53;;;;;;;0.22;0.17;;;;;;;10.30;70.83;99735.72;15735351;28;20135;-55
2023/11/09 22:28:28;;;;;;;0.10;0.10;;;;;;;10.45;70.28;99727.22;15734683;28;20524;-48
2023/11/09 22:36:02;;;;;;;0.20;0.20;;;;;;;10.39;70.42;99725.44;15735240;28;20485;-52
2023/11/09 22:43:43;;;;;;;;;;;;;;;10.33;70.21;99713.81;15747602;28;20036;-49
2023/11/09 22:51:17;;;;;;;0.00;0.00;;;;;;;10.46;69.43;99715.44;15747047;28;19932;-50
2023/11/09 22:58:51;;;;;;;0.00;0.00;;;;;;;10.35;69.77;99716.25;15746159;28;20098;-48
2023/11/09 23:06:26;;;;;;;0.00;0.00;;;;;;;10.32;70.18;99703.31;15745280;28;20090;-49
2023/11/09 23:14:02;;;;;;;0.55;0.55;;;;;;;10.44;69.51;99690.69;15746485;28;20144;-51
2023/11/09 23:21:36;;;;;;;0.00;0.00;;;;;;;10.46;69.47;99689.41;15744627;28;20123;-51
2023/11/09 23:29:11;;;;;;;0.05;0.05;;;;;;;10.41;69.88;99675.09;15736344;28;20063;-50
2023/11/09 23:36:44;;;;;;;0.70;0.20;;;;;;;10.32;69.80;99679.19;15743433;28;20044;-53
2023/11/09 23:44:20;;;;;;;0.00;0.00;;;;;;;9.95;70.80;99660.59;15744906;28;20493;-51
2023/11/09 23:51:53;;;;;;;0.10;0.10;;;;;;;10.09;70.04;99653.97;15751651;22;20063;-46
2023/11/09 23:59:28;;;;;;;;;;;;;;;9.86;70.84;99640.56;15719555;28;20051;-48
